createdAt,value
2023-01-05T00:01:06.057Z,94.29
2023-01-05T00:03:33.820Z,94.32
2023-01-05T00:06:05.071Z,95.11
2023-01-05T00:08:37.022Z,94.93
2023-01-05T00:11:40.369Z,94.46
2023-01-05T00:14:30.295Z,94.40
2023-01-05T00:17:15.678Z,94.44
2023-01-05T00:20:00.771Z,96.28
2023-01-05T00:22:31.538Z,97.64
2023-01-05T00:25:12.128Z,98.33
2023-01-05T00:27:43.920Z,98.26
2023-01-05T00:30:14.138Z,97.85
2023-01-05T00:32:41.685Z,97.22
2023-01-05T00:35:09.536Z,97.03
2023-01-05T00:37:38.406Z,96.18
2023-01-05T00:40:11.361Z,95.36
2023-01-05T00:42:38.223Z,94.88
2023-01-05T00:45:10.730Z,94.81
2023-01-05T00:47:37.145Z,93.74
2023-01-05T00:50:04.540Z,94.31
2023-01-05T00:52:30.976Z,93.39
2023-01-05T00:54:57.576Z,94.72
2023-01-05T00:57:24.163Z,92.80
2023-01-05T00:59:52.813Z,92.87
2023-01-05T01:02:20.065Z,92.96
2023-01-05T01:04:46.678Z,93.71
2023-01-05T01:07:13.120Z,92.70
2023-01-05T01:09:40.579Z,92.93
2023-01-05T01:12:08.187Z,92.25
2023-01-05T01:14:34.908Z,91.65
2023-01-05T01:17:02.744Z,92.54
2023-01-05T01:19:29.237Z,91.64
2023-01-05T01:21:55.738Z,91.45
2023-01-05T01:24:25.314Z,91.12
2023-01-05T01:26:52.851Z,91.58
2023-01-05T01:29:21.080Z,91.04
2023-01-05T01:31:48.653Z,91.09
2023-01-05T01:34:15.634Z,90.53
2023-01-05T01:36:42.605Z,90.45
2023-01-05T01:39:11.131Z,90.76
2023-01-05T01:41:40.061Z,90.69
2023-01-05T01:44:44.741Z,90.50
2023-01-05T01:47:16.778Z,91.81
2023-01-05T01:49:43.176Z,92.59
2023-01-05T01:52:09.723Z,93.38
2023-01-05T01:54:36.294Z,93.78
2023-01-05T01:57:04.281Z,94.94
2023-01-05T01:59:30.978Z,96.33
2023-01-05T02:02:01.139Z,96.90
2023-01-05T02:04:32.444Z,98.04
2023-01-05T02:07:00.927Z,98.27
2023-01-05T02:09:27.628Z,99.20
2023-01-05T02:12:06.854Z,100.00
2023-01-05T02:14:58.730Z,100.00
2023-01-05T02:17:37.200Z,100.00
2023-01-05T02:20:31.370Z,100.00
2023-01-05T02:23:31.850Z,100.00
2023-01-05T02:26:02.031Z,100.00
2023-01-05T02:28:53.968Z,100.00
2023-01-05T02:31:31.305Z,100.00
2023-01-05T02:34:17.385Z,100.00
2023-01-05T02:36:53.920Z,100.00
2023-01-05T02:39:39.602Z,100.00
2023-01-05T02:42:15.353Z,100.00
2023-01-05T02:44:44.162Z,100.00
2023-01-05T02:47:25.958Z,100.00
2023-01-05T02:49:57.155Z,100.00
2023-01-05T02:52:24.783Z,100.00
2023-01-05T02:55:00.834Z,100.00
2023-01-05T02:57:52.729Z,100.00
2023-01-05T03:00:34.784Z,100.00
2023-01-05T03:03:12.211Z,100.00
2023-01-05T03:05:55.885Z,100.00
2023-01-05T03:08:30.762Z,100.00
2023-01-05T03:11:23.402Z,100.00
2023-01-05T03:14:12.566Z,100.00
2023-01-05T03:16:39.813Z,100.00
2023-01-05T03:19:30.342Z,100.00
2023-01-05T03:22:18.262Z,100.00
2023-01-05T03:25:04.315Z,100.00
2023-01-05T03:27:54.309Z,100.00
2023-01-05T03:30:48.206Z,100.00
2023-01-05T03:33:40.689Z,100.00
2023-01-05T03:36:09.176Z,100.00
2023-01-05T03:38:45.250Z,100.00
2023-01-05T03:41:15.473Z,100.00
2023-01-05T03:43:43.044Z,100.00
2023-01-05T03:46:13.690Z,100.00
2023-01-05T03:48:40.874Z,100.00
2023-01-05T03:51:07.774Z,100.00
2023-01-05T03:53:36.258Z,100.00
2023-01-05T03:56:03.960Z,100.00
2023-01-05T03:58:30.402Z,100.00
2023-01-05T04:00:57.157Z,100.00
2023-01-05T04:03:29.572Z,100.00
2023-01-05T04:06:00.304Z,100.00
2023-01-05T04:08:29.794Z,100.00
2023-01-05T04:10:57.492Z,100.00
2023-01-05T04:13:24.979Z,100.00
2023-01-05T04:15:54.770Z,100.00
2023-01-05T04:18:21.318Z,100.00
2023-01-05T04:20:48.147Z,100.00
2023-01-05T04:23:14.577Z,99.97
2023-01-05T04:25:41.743Z,99.85
2023-01-05T04:28:16.116Z,100.00
2023-01-05T04:30:44.540Z,100.00
2023-01-05T04:33:11.833Z,100.00
2023-01-05T04:35:38.728Z,100.00
2023-01-05T04:38:06.129Z,100.00
2023-01-05T04:40:33.360Z,100.00
2023-01-05T04:43:00.582Z,100.00
2023-01-05T04:45:27.302Z,100.00
2023-01-05T04:47:54.692Z,100.00
2023-01-05T04:50:23.529Z,100.00
2023-01-05T04:52:50.090Z,100.00
2023-01-05T04:55:19.065Z,100.00
2023-01-05T04:57:46.237Z,100.00
2023-01-05T05:00:14.791Z,100.00
2023-01-05T05:02:43.792Z,100.00
2023-01-05T05:05:13.252Z,100.00
2023-01-05T05:07:39.679Z,100.00
2023-01-05T05:10:08.913Z,100.00
2023-01-05T05:12:35.613Z,100.00
2023-01-05T05:15:02.817Z,100.00
2023-01-05T05:17:30.112Z,100.00
2023-01-05T05:19:57.246Z,100.00
2023-01-05T05:22:25.019Z,100.00
2023-01-05T05:24:51.428Z,100.00
2023-01-05T05:27:17.855Z,100.00
2023-01-05T05:29:44.276Z,100.00
2023-01-05T05:32:10.831Z,100.00
2023-01-05T05:34:37.237Z,100.00
2023-01-05T05:37:03.630Z,100.00
2023-01-05T05:39:30.118Z,100.00
2023-01-05T05:41:56.544Z,100.00
2023-01-05T05:44:22.972Z,100.00
2023-01-05T05:46:49.435Z,100.00
2023-01-05T05:49:15.885Z,100.00
2023-01-05T05:51:42.275Z,100.00
2023-01-05T05:54:08.764Z,100.00
2023-01-05T05:56:35.170Z,100.00
2023-01-05T05:59:02.777Z,100.00
2023-01-05T06:01:30.135Z,100.00
2023-01-05T06:03:56.775Z,100.00
2023-01-05T06:06:23.311Z,100.00
2023-01-05T06:08:49.738Z,100.00
2023-01-05T06:11:16.136Z,100.00
2023-01-05T06:13:42.824Z,100.00
2023-01-05T06:16:09.425Z,100.00
2023-01-05T06:18:36.116Z,100.00
2023-01-05T06:21:02.706Z,100.00
2023-01-05T06:23:29.927Z,100.00
2023-01-05T06:25:56.312Z,100.00
2023-01-05T06:28:22.702Z,100.00
2023-01-05T06:30:49.082Z,100.00
2023-01-05T06:33:15.517Z,100.00
2023-01-05T06:35:41.899Z,100.00
2023-01-05T06:38:08.462Z,100.00
2023-01-05T06:40:35.444Z,100.00
2023-01-05T06:43:03.448Z,100.00
2023-01-05T06:45:30.038Z,100.00
2023-01-05T06:47:58.930Z,100.00
2023-01-05T06:50:25.429Z,100.00
2023-01-05T06:52:51.833Z,100.00
2023-01-05T06:55:18.313Z,100.00
2023-01-05T06:57:44.772Z,100.00
2023-01-05T07:00:12.343Z,100.00
2023-01-05T07:02:38.890Z,100.00
2023-01-05T07:05:05.740Z,100.00
2023-01-05T07:07:32.336Z,100.00
2023-01-05T07:09:58.758Z,100.00
2023-01-05T07:12:25.804Z,100.00
2023-01-05T07:14:57.291Z,100.00
2023-01-05T07:17:24.361Z,100.00
2023-01-05T07:19:50.757Z,100.00
2023-01-05T07:22:17.205Z,100.00
2023-01-05T07:24:43.731Z,100.00
2023-01-05T07:27:10.330Z,100.00
2023-01-05T07:29:36.846Z,100.00
2023-01-05T07:32:03.836Z,100.00
2023-01-05T07:34:30.325Z,100.00
2023-01-05T07:36:57.070Z,100.00
2023-01-05T07:39:23.810Z,100.00
2023-01-05T07:41:50.231Z,100.00
2023-01-05T07:44:18.210Z,100.00
2023-01-05T07:46:44.702Z,100.00
2023-01-05T07:49:11.350Z,100.00
2023-01-05T07:51:37.815Z,100.00
2023-01-05T07:54:04.329Z,100.00
2023-01-05T07:56:30.750Z,100.00
2023-01-05T07:58:57.338Z,100.00
2023-01-05T08:01:23.840Z,100.00
2023-01-05T08:03:50.470Z,100.00
2023-01-05T08:06:19.478Z,100.00
2023-01-05T08:08:46.356Z,100.00
2023-01-05T08:11:17.400Z,100.00
2023-01-05T08:14:00.201Z,100.00
2023-01-05T08:16:30.941Z,100.00
2023-01-05T08:18:58.402Z,100.00
2023-01-05T08:21:25.249Z,100.00
2023-01-05T08:23:53.199Z,100.00
2023-01-05T08:26:23.263Z,100.00
2023-01-05T08:28:50.499Z,100.00
2023-01-05T08:31:20.846Z,100.00
2023-01-05T08:33:47.445Z,100.00
2023-01-05T08:36:17.113Z,100.00
2023-01-05T08:38:48.177Z,100.00
2023-01-05T08:41:16.902Z,100.00
2023-01-05T08:43:43.512Z,100.00
2023-01-05T08:46:10.691Z,100.00
2023-01-05T08:48:37.139Z,100.00
2023-01-05T08:51:06.126Z,100.00
2023-01-05T08:53:34.516Z,100.00
2023-01-05T08:56:01.843Z,100.00
2023-01-05T08:58:28.539Z,100.00
2023-01-05T09:00:55.129Z,100.00
2023-01-05T09:03:21.579Z,100.00
2023-01-05T09:05:48.524Z,100.00
2023-01-05T09:08:14.923Z,100.00
2023-01-05T09:10:41.314Z,100.00
2023-01-05T09:13:07.801Z,99.80
2023-01-05T09:15:35.081Z,98.09
2023-01-05T09:18:02.779Z,97.65
2023-01-05T09:20:33.166Z,98.13
2023-01-05T09:23:02.867Z,98.36
2023-01-05T09:25:29.393Z,98.96
2023-01-05T09:27:56.044Z,98.90
2023-01-05T09:30:22.597Z,98.84
2023-01-05T09:32:48.998Z,99.61
2023-01-05T09:35:15.405Z,100.00
2023-01-05T09:37:41.971Z,100.00
2023-01-05T09:40:09.755Z,100.00
2023-01-05T09:42:43.577Z,100.00
2023-01-05T09:45:13.482Z,100.00
2023-01-05T09:47:42.159Z,100.00
2023-01-05T09:50:19.510Z,100.00
2023-01-05T09:52:46.353Z,100.00
2023-01-05T09:55:21.567Z,100.00
2023-01-05T09:58:06.259Z,100.00
2023-01-05T10:00:33.747Z,100.00
2023-01-05T10:03:11.045Z,100.00
2023-01-05T10:05:44.763Z,100.00
2023-01-05T10:08:20.099Z,100.00
2023-01-05T10:11:39.929Z,99.31
2023-01-05T10:14:14.676Z,97.99
2023-01-05T10:16:44.120Z,97.68
2023-01-05T10:19:15.684Z,96.87
2023-01-05T10:21:47.975Z,95.56
2023-01-05T10:24:35.251Z,95.88
2023-01-05T10:27:25.145Z,96.03
2023-01-05T10:30:13.225Z,95.97
2023-01-05T10:33:27.760Z,94.77
2023-01-05T10:36:06.371Z,94.95
2023-01-05T10:39:10.320Z,94.10
2023-01-05T10:41:45.956Z,93.08
2023-01-05T10:44:47.990Z,93.76
2023-01-05T10:47:15.152Z,92.82
2023-01-05T10:49:45.353Z,93.62
2023-01-05T10:52:18.329Z,93.81
2023-01-05T10:55:00.911Z,93.73
2023-01-05T10:57:38.104Z,94.16
2023-01-05T11:00:21.994Z,93.89
2023-01-05T11:02:57.766Z,93.20
2023-01-05T11:05:33.550Z,92.72
2023-01-05T11:08:06.764Z,92.05
2023-01-05T11:10:39.093Z,92.78
2023-01-05T11:13:17.751Z,93.25
2023-01-05T11:15:59.868Z,93.85
2023-01-05T11:18:33.605Z,94.45
2023-01-05T11:21:07.671Z,94.35
2023-01-05T11:23:49.117Z,95.13
2023-01-05T11:26:18.686Z,95.47
2023-01-05T11:29:10.895Z,94.93
2023-01-05T11:31:42.727Z,93.94
2023-01-05T11:34:17.489Z,93.79
2023-01-05T11:36:52.509Z,93.06
2023-01-05T11:39:47.813Z,93.39
2023-01-05T11:42:23.353Z,93.73
2023-01-05T11:44:55.494Z,95.02
2023-01-05T11:47:43.280Z,95.02
2023-01-05T11:50:13.450Z,96.76
2023-01-05T11:52:49.890Z,97.27
2023-01-05T11:55:22.468Z,98.13
2023-01-05T11:57:54.193Z,97.76
2023-01-05T12:00:26.883Z,97.52
2023-01-05T12:03:11.839Z,99.18
2023-01-05T12:05:50.573Z,100.00
2023-01-05T12:08:27.701Z,100.00
2023-01-05T12:11:17.268Z,100.00
2023-01-05T12:14:21.279Z,100.00
2023-01-05T12:17:03.074Z,100.00
2023-01-05T12:20:00.579Z,100.00
2023-01-05T12:22:57.786Z,100.00
2023-01-05T12:25:52.990Z,100.00
2023-01-05T12:28:43.409Z,100.00
2023-01-05T12:34:18.418Z,100.00
2023-01-05T12:37:04.479Z,100.00
2023-01-05T12:40:05.012Z,100.00
2023-01-05T12:42:50.469Z,100.00
2023-01-05T12:45:32.294Z,100.00
2023-01-05T12:48:15.073Z,100.00
2023-01-05T12:51:08.166Z,100.00
2023-01-05T12:53:40.563Z,100.00
2023-01-05T12:56:16.599Z,100.00
2023-01-05T12:58:56.970Z,100.00
2023-01-05T13:01:27.838Z,100.00
2023-01-05T13:04:11.698Z,100.00
2023-01-05T13:06:42.830Z,100.00
2023-01-05T13:09:20.157Z,100.00
2023-01-05T13:11:55.733Z,100.00
2023-01-05T13:14:28.231Z,100.00
2023-01-05T13:17:00.832Z,100.00
2023-01-05T13:19:34.811Z,100.00
2023-01-05T13:22:10.662Z,100.00
2023-01-05T13:24:50.513Z,100.00
2023-01-05T13:27:17.770Z,100.00
2023-01-05T13:29:48.029Z,100.00
2023-01-05T13:32:43.862Z,100.00
2023-01-05T13:35:32.245Z,100.00
2023-01-05T13:38:28.963Z,100.00
2023-01-05T13:41:08.436Z,100.00
2023-01-05T13:44:07.321Z,100.00
2023-01-05T13:46:47.637Z,100.00
2023-01-05T13:49:44.183Z,100.00
2023-01-05T13:52:47.800Z,100.00
2023-01-05T13:55:25.877Z,100.00
2023-01-05T13:57:55.534Z,100.00
2023-01-05T14:00:25.300Z,100.00
2023-01-05T14:03:20.973Z,100.00
2023-01-05T14:05:51.876Z,100.00
2023-01-05T14:08:38.098Z,100.00
2023-01-05T14:11:15.180Z,100.00
2023-01-05T14:13:54.679Z,100.00
2023-01-05T14:16:33.904Z,100.00
2023-01-05T14:19:20.437Z,100.00
2023-01-05T14:21:49.571Z,100.00
2023-01-05T14:24:33.501Z,100.00
2023-01-05T14:27:24.270Z,100.00
2023-01-05T14:29:53.656Z,100.00
2023-01-05T14:32:26.755Z,100.00
2023-01-05T14:37:55.342Z,100.00
2023-01-05T14:40:33.643Z,100.00
2023-01-05T14:43:04.104Z,100.00
2023-01-05T14:45:33.654Z,100.00
2023-01-05T14:48:03.472Z,100.00
2023-01-05T14:50:32.410Z,100.00
2023-01-05T14:53:03.894Z,100.00
2023-01-05T14:55:40.195Z,100.00
2023-01-05T14:58:15.608Z,100.00
2023-01-05T15:00:52.922Z,100.00
2023-01-05T15:03:37.267Z,100.00
2023-01-05T15:06:11.402Z,100.00
2023-01-05T15:09:05.865Z,100.00
2023-01-05T15:11:43.477Z,100.00
2023-01-05T15:14:32.377Z,100.00
2023-01-05T15:16:58.917Z,100.00
2023-01-05T15:19:56.648Z,100.00
2023-01-05T15:22:38.392Z,100.00
2023-01-05T15:25:34.393Z,100.00
2023-01-05T15:28:31.909Z,100.00
2023-01-05T15:31:13.985Z,100.00
2023-01-05T15:33:46.104Z,100.00
2023-01-05T15:36:24.893Z,100.00
2023-01-05T15:38:51.320Z,100.00
2023-01-05T15:41:20.958Z,100.00
2023-01-05T15:43:49.038Z,100.00
2023-01-05T15:46:26.395Z,100.00
2023-01-05T15:48:54.392Z,100.00
2023-01-05T15:51:27.759Z,100.00
2023-01-05T15:53:57.679Z,100.00
2023-01-05T15:56:51.006Z,100.00
2023-01-05T15:59:35.112Z,100.00
2023-01-05T16:02:01.846Z,100.00
2023-01-05T16:04:28.523Z,100.00
2023-01-05T16:07:01.978Z,100.00
2023-01-05T16:09:35.480Z,100.00
2023-01-05T16:12:11.166Z,100.00
2023-01-05T16:14:43.242Z,100.00
2023-01-05T16:17:19.178Z,100.00
2023-01-05T16:19:49.752Z,100.00
2023-01-05T16:22:44.517Z,100.00
2023-01-05T16:25:18.399Z,100.00
2023-01-05T16:27:49.252Z,100.00
2023-01-05T16:30:37.813Z,100.00
2023-01-05T16:33:14.966Z,100.00
2023-01-05T16:35:55.311Z,100.00
2023-01-05T16:38:21.713Z,100.00
2023-01-05T16:40:48.077Z,100.00
2023-01-05T16:43:23.684Z,100.00
2023-01-05T16:45:52.217Z,100.00
2023-01-05T16:48:40.096Z,100.00
2023-01-05T16:51:09.324Z,100.00
2023-01-05T16:53:41.928Z,100.00
2023-01-05T16:56:19.378Z,100.00
2023-01-05T16:58:46.254Z,100.00
2023-01-05T17:01:13.358Z,100.00
2023-01-05T17:03:40.878Z,100.00
2023-01-05T17:06:19.735Z,100.00
2023-01-05T17:08:46.162Z,100.00
2023-01-05T17:11:12.792Z,100.00
2023-01-05T17:13:46.990Z,100.00
2023-01-05T17:16:14.084Z,100.00
2023-01-05T17:18:40.516Z,100.00
2023-01-05T17:21:08.909Z,100.00
2023-01-05T17:23:46.604Z,100.00
2023-01-05T17:26:36.646Z,100.00
2023-01-05T17:29:05.215Z,100.00
2023-01-05T17:31:31.618Z,100.00
2023-01-05T17:33:59.315Z,100.00
2023-01-05T17:36:32.386Z,100.00
2023-01-05T17:38:59.858Z,100.00
2023-01-05T17:41:26.515Z,100.00
2023-01-05T17:43:53.141Z,100.00
2023-01-05T17:46:24.534Z,100.00
2023-01-05T17:48:50.998Z,100.00
2023-01-05T17:51:18.366Z,100.00
2023-01-05T17:53:44.993Z,100.00
2023-01-05T17:56:11.461Z,100.00
2023-01-05T17:58:38.954Z,100.00
2023-01-05T18:01:06.450Z,100.00
2023-01-05T18:03:33.276Z,100.00
2023-01-05T18:06:01.091Z,100.00
2023-01-05T18:08:29.661Z,100.00
2023-01-05T18:10:56.601Z,100.00
2023-01-05T18:13:24.332Z,100.00
2023-01-05T18:15:52.356Z,100.00
2023-01-05T18:18:21.589Z,100.00
2023-01-05T18:20:51.131Z,100.00
2023-01-05T18:23:19.321Z,100.00
2023-01-05T18:25:46.019Z,100.00
2023-01-05T18:28:12.779Z,100.00
2023-01-05T18:30:42.848Z,100.00
2023-01-05T18:33:09.725Z,100.00
2023-01-05T18:35:43.437Z,100.00
2023-01-05T18:38:10.205Z,100.00
2023-01-05T18:40:36.753Z,100.00
2023-01-05T18:43:03.470Z,100.00
2023-01-05T18:45:39.299Z,100.00
2023-01-05T18:48:06.200Z,100.00
2023-01-05T18:50:32.735Z,100.00
2023-01-05T18:52:59.331Z,100.00
2023-01-05T18:55:26.200Z,100.00
2023-01-05T18:57:52.628Z,100.00
2023-01-05T19:00:19.142Z,100.00
2023-01-05T19:02:45.578Z,100.00
2023-01-05T19:05:12.059Z,100.00
2023-01-05T19:07:39.704Z,100.00
2023-01-05T19:10:06.493Z,100.00
2023-01-05T19:12:33.329Z,100.00
2023-01-05T19:15:00.083Z,100.00
2023-01-05T19:17:28.408Z,100.00
2023-01-05T19:19:57.416Z,100.00
2023-01-05T19:22:23.848Z,100.00
2023-01-05T19:24:50.254Z,100.00
2023-01-05T19:27:16.677Z,100.00
2023-01-05T19:29:43.190Z,100.00
2023-01-05T19:32:09.598Z,100.00
2023-01-05T19:34:36.084Z,100.00
2023-01-05T19:37:05.497Z,100.00
2023-01-05T19:39:32.699Z,100.00
2023-01-05T19:41:59.335Z,100.00
2023-01-05T19:44:26.333Z,100.00
2023-01-05T19:46:53.999Z,100.00
2023-01-05T19:49:22.941Z,100.00
2023-01-05T19:51:50.098Z,100.00
2023-01-05T19:54:17.173Z,100.00
2023-01-05T19:56:44.895Z,100.00
2023-01-05T19:59:21.463Z,100.00
2023-01-05T20:01:48.513Z,100.00
2023-01-05T20:04:15.613Z,100.00
2023-01-05T20:06:44.371Z,100.00
2023-01-05T20:09:13.578Z,100.00
2023-01-05T20:11:45.729Z,100.00
2023-01-05T20:14:15.437Z,100.00
2023-01-05T20:16:44.575Z,100.00
2023-01-05T20:19:11.608Z,100.00
2023-01-05T20:21:38.406Z,100.00
2023-01-05T20:24:10.603Z,100.00
2023-01-05T20:26:37.069Z,100.00
2023-01-05T20:29:04.364Z,100.00
2023-01-05T20:31:34.310Z,100.00
2023-01-05T20:34:04.825Z,100.00
2023-01-05T20:36:31.556Z,100.00
2023-01-05T20:38:59.256Z,100.00
2023-01-05T20:41:35.775Z,100.00
2023-01-05T20:44:03.606Z,100.00
2023-01-05T20:46:34.365Z,100.00
2023-01-05T20:49:01.289Z,100.00
2023-01-05T20:51:29.095Z,100.00
2023-01-05T20:53:58.468Z,100.00
2023-01-05T20:56:33.236Z,100.00
2023-01-05T20:59:00.363Z,100.00
2023-01-05T21:01:28.240Z,100.00
2023-01-05T21:03:54.726Z,100.00
2023-01-05T21:06:21.578Z,100.00
2023-01-05T21:08:49.736Z,100.00
2023-01-05T21:11:18.407Z,100.00
2023-01-05T21:13:47.242Z,100.00
2023-01-05T21:16:18.843Z,100.00
2023-01-05T21:18:46.662Z,100.00
2023-01-05T21:21:17.797Z,100.00
2023-01-05T21:23:49.335Z,100.00
2023-01-05T21:26:17.045Z,100.00
2023-01-05T21:28:44.618Z,100.00
2023-01-05T21:31:14.471Z,100.00
2023-01-05T21:33:41.592Z,100.00
2023-01-05T21:36:15.573Z,100.00
2023-01-05T21:39:00.867Z,100.00
2023-01-05T21:41:50.390Z,100.00
2023-01-05T21:44:17.670Z,100.00
2023-01-05T21:46:44.313Z,100.00
2023-01-05T21:49:11.830Z,100.00
2023-01-05T21:51:57.416Z,100.00
2023-01-05T21:54:42.281Z,100.00
2023-01-05T21:57:08.831Z,100.00
2023-01-05T21:59:35.643Z,100.00
2023-01-05T22:02:02.165Z,100.00
2023-01-05T22:04:28.705Z,100.00
2023-01-05T22:06:55.165Z,100.00
2023-01-05T22:09:21.564Z,100.00
2023-01-05T22:11:48.427Z,100.00
2023-01-05T22:14:15.231Z,100.00
2023-01-05T22:16:41.848Z,100.00
2023-01-05T22:19:08.377Z,100.00
2023-01-05T22:21:34.820Z,100.00
2023-01-05T22:24:02.709Z,100.00
2023-01-05T22:26:29.666Z,100.00
2023-01-05T22:28:56.203Z,100.00
2023-01-05T22:31:29.110Z,100.00
2023-01-05T22:33:58.457Z,100.00
2023-01-05T22:36:26.855Z,100.00
2023-01-05T22:38:55.056Z,100.00
2023-01-05T22:41:25.073Z,100.00
2023-01-05T22:43:52.381Z,100.00
2023-01-05T22:46:21.448Z,100.00
2023-01-05T22:48:49.741Z,100.00
2023-01-05T22:51:19.015Z,100.00
2023-01-05T22:53:45.863Z,100.00
2023-01-05T22:56:13.735Z,100.00
2023-01-05T22:58:40.913Z,100.00
2023-01-05T23:01:13.523Z,100.00
2023-01-05T23:03:41.384Z,100.00
2023-01-05T23:06:08.661Z,100.00
2023-01-05T23:08:36.744Z,100.00
2023-01-05T23:11:10.125Z,100.00
2023-01-05T23:13:36.981Z,100.00
2023-01-05T23:16:05.174Z,100.00
2023-01-05T23:18:32.268Z,100.00
2023-01-05T23:21:01.218Z,100.00
2023-01-05T23:23:30.311Z,100.00
2023-01-05T23:25:57.389Z,100.00
2023-01-05T23:28:25.158Z,100.00
2023-01-05T23:30:53.641Z,100.00
2023-01-05T23:33:23.291Z,100.00
2023-01-05T23:35:53.922Z,100.00
2023-01-05T23:38:21.372Z,100.00
2023-01-05T23:40:50.385Z,100.00
2023-01-05T23:43:20.687Z,100.00
2023-01-05T23:45:48.023Z,100.00
2023-01-05T23:48:15.487Z,100.00
2023-01-05T23:50:43.819Z,100.00
2023-01-05T23:53:11.313Z,100.00
2023-01-05T23:55:38.998Z,100.00
2023-01-05T23:58:05.698Z,100.00
